Weather at Asheville Regional Airport

Public forecast

Using degrees Fahrenheit for public forecast. Weather courtesy of forecast.io.

Current aviation weather report (METAR) for Asheville Regional Airport

Retrieved 2021/01/24 16:54 UTC (18 minutes ago):

KAVL 241654Z 13006KT 10SM OVC100 06/M12 A3021 RMK AO2 SLP236 T00561117

Aviation forecast (TAF) for Asheville Regional Airport

Retrieved 2021/01/24 12:30 UTC (5 hours ago):

TAF KAVL 241129Z 2412/2512 19003KT P6SM OVC100 FM241600 17007KT P6SM SCT040 FM250500 17004KT 6SM BR VCSH BKN040 FM250800 16003KT 4SM -SHRA BR BKN009